Time;durP1;ratioP1;P1;durP2;ratioP2;P2;SDS_P1;SDS_P2;PMS_P1;PMS_P2;Temp;Humidity;BMP_temperature;BMP_pressure;BME280_temperature;BME280_humidity;BME280_pressure;Samples;Min_cycle;Max_cycle;Signal;HPM_P1;HPM_P2
2023/05/07 00:00:33;;;;;;;;;;;15.70;99.90;;;;;;4995054;28;19940;-92
2023/05/07 00:03:01;;;;;;;;;;;15.70;99.90;;;;;;5017991;28;19937;-91
2023/05/07 00:05:28;;;;;;;;;;;15.70;99.90;;;;;;5003828;28;19964;-89
2023/05/07 00:07:55;;;;;;;;;;;15.70;99.90;;;;;;4998927;28;20392;-91
2023/05/07 00:10:21;;;;;;;;;;;15.60;99.90;;;;;;5001296;28;20020;-89
2023/05/07 00:12:49;;;;;;;;;;;15.60;99.90;;;;;;5005059;28;19933;-91
2023/05/07 00:15:16;;;;;;;;;;;15.60;99.90;;;;;;5008693;28;19930;-92
2023/05/07 00:17:44;;;;;;;;;;;15.60;99.90;;;;;;4999630;28;19935;-89
2023/05/07 00:20:12;;;;;;;;;;;15.60;99.90;;;;;;5011842;28;19930;-90
2023/05/07 00:22:39;;;;;;;;;;;15.60;99.90;;;;;;5018402;28;20407;-89
2023/05/07 00:25:07;;;;;;;;;;;15.50;99.90;;;;;;5028531;28;19988;-91
2023/05/07 00:27:34;;;;;;;;;;;15.50;99.90;;;;;;5031576;28;19926;-89
2023/05/07 00:30:03;;;;;;;;;;;15.50;99.90;;;;;;5003891;28;20497;-89
2023/05/07 00:32:30;;;;;;;;;;;15.50;99.90;;;;;;5035212;28;19937;-89
2023/05/07 00:34:58;;;;;;;;;;;15.50;99.90;;;;;;5005941;28;20434;-90
2023/05/07 00:37:25;;;;;;;;;;;15.50;99.90;;;;;;5000834;28;20127;-89
2023/05/07 00:39:52;;;;;;;;;;;15.50;99.90;;;;;;5010187;28;19953;-90
2023/05/07 00:42:19;;;;;;;;;;;15.40;99.90;;;;;;5002497;28;19980;-90
2023/05/07 00:44:46;;;;;;;;;;;15.40;99.90;;;;;;5014428;28;19952;-90
2023/05/07 00:47:14;;;;;;;;;;;15.40;99.90;;;;;;5009552;28;19913;-89
2023/05/07 00:49:42;;;;;;;;;;;15.40;99.90;;;;;;5019918;28;19929;-90
2023/05/07 00:52:12;;;;;;;;;;;15.40;99.90;;;;;;5015281;28;20506;-88
2023/05/07 00:54:40;;;;;;;;;;;15.30;99.90;;;;;;5019041;28;19948;-91
2023/05/07 00:57:07;;;;;;;;;;;15.30;99.90;;;;;;5009551;28;19925;-90
2023/05/07 00:59:34;;;;;;;;;;;15.30;99.90;;;;;;5003339;28;19932;-90
2023/05/07 01:02:01;;;;;;;;;;;15.30;99.90;;;;;;5020232;28;19936;-91
2023/05/07 01:04:29;;;;;;;;;;;15.30;99.90;;;;;;5003904;28;19925;-91
2023/05/07 01:06:57;;;;;;;;;;;15.20;99.90;;;;;;5005546;28;20024;-90
2023/05/07 01:09:27;;;;;;;;;;;15.20;99.90;;;;;;5026865;28;19933;-90
2023/05/07 01:11:54;;;;;;;;;;;15.20;99.90;;;;;;5009215;28;19960;-89
2023/05/07 01:14:22;;;;;;;;;;;15.20;99.90;;;;;;5009080;28;20406;-91
2023/05/07 01:16:51;;;;;;;;;;;15.20;99.90;;;;;;5040385;28;19952;-90
2023/05/07 01:19:20;;;;;;;;;;;15.10;99.90;;;;;;5022037;28;20275;-89
2023/05/07 01:21:48;;;;;;;;;;;15.20;99.90;;;;;;5013267;28;19909;-90
2023/05/07 01:24:19;;;;;;;;;;;15.20;99.90;;;;;;5008202;28;19925;-90
2023/05/07 01:26:46;;;;;;;;;;;15.10;99.90;;;;;;5009091;28;20396;-90
2023/05/07 01:29:15;;;;;;;;;;;15.10;99.90;;;;;;5043066;28;19965;-89
2023/05/07 01:31:42;;;;;;;;;;;15.10;99.90;;;;;;5024327;28;19930;-90
2023/05/07 01:34:10;;;;;;;;;;;15.10;99.90;;;;;;5016627;28;19948;-89
2023/05/07 01:36:39;;;;;;;;;;;15.00;99.90;;;;;;5043219;28;19933;-90
2023/05/07 01:39:06;;;;;;;;;;;15.00;99.90;;;;;;5039386;28;20380;-89
2023/05/07 01:41:35;;;;;;;;;;;15.00;99.90;;;;;;5040533;28;19929;-89
2023/05/07 01:44:03;;;;;;;;;;;15.00;99.90;;;;;;5017255;28;20051;-90
2023/05/07 01:46:31;;;;;;;;;;;15.00;99.90;;;;;;5009147;28;20012;-89
2023/05/07 01:48:59;;;;;;;;;;;15.00;99.90;;;;;;5013882;28;19960;-90
2023/05/07 01:51:26;;;;;;;;;;;14.90;99.90;;;;;;5011624;28;19964;-89
2023/05/07 01:53:54;;;;;;;;;;;14.90;99.90;;;;;;5015012;28;19921;-88
2023/05/07 01:56:21;;;;;;;;;;;14.90;99.90;;;;;;5027869;28;19926;-91
2023/05/07 01:58:51;;;;;;;;;;;14.90;99.90;;;;;;5016432;28;19921;-89
2023/05/07 02:01:18;;;;;;;;;;;14.90;99.90;;;;;;5016051;28;19925;-88
2023/05/07 02:03:46;;;;;;;;;;;14.80;99.90;;;;;;5011365;28;19926;-89
2023/05/07 02:06:20;;;;;;;;;;;14.80;99.90;;;;;;5043724;28;19925;-90
2023/05/07 02:08:48;;;;;;;;;;;14.80;99.90;;;;;;5019053;28;19913;-89
2023/05/07 02:11:16;;;;;;;;;;;14.80;99.90;;;;;;5016379;28;19925;-90
2023/05/07 02:13:43;;;;;;;;;;;14.80;99.90;;;;;;5014776;28;19956;-90
2023/05/07 02:16:14;;;;;;;;;;;14.80;99.90;;;;;;5022446;28;19921;-88
2023/05/07 02:18:41;;;;;;;;;;;14.70;99.90;;;;;;5016009;28;19937;-88
2023/05/07 02:21:09;;;;;;;;;;;14.70;99.90;;;;;;5050556;28;19952;-89
2023/05/07 02:23:37;;;;;;;;;;;14.70;99.90;;;;;;5043711;28;19926;-89
2023/05/07 02:26:04;;;;;;;;;;;14.70;99.90;;;;;;5015139;28;19922;-90
2023/05/07 02:28:35;;;;;;;;;;;14.60;99.90;;;;;;5017086;28;19921;-89
2023/05/07 02:31:04;;;;;;;;;;;14.70;99.90;;;;;;5045967;28;19921;-90
2023/05/07 02:33:36;;;;;;;;;;;14.70;99.90;;;;;;5033254;28;19922;-89
2023/05/07 02:36:09;;;;;;;;;;;14.60;99.90;;;;;;5048047;28;19914;-90
2023/05/07 02:38:40;;;;;;;;;;;14.60;99.90;;;;;;5048260;28;19975;-90
2023/05/07 02:41:07;;;;;;;;;;;14.60;99.90;;;;;;5013657;28;19917;-90
2023/05/07 02:43:37;;;;;;;;;;;14.60;99.90;;;;;;5032739;28;19972;-90
2023/05/07 02:46:07;;;;;;;;;;;14.50;99.90;;;;;;5020013;28;19932;-90
2023/05/07 02:48:41;;;;;;;;;;;14.50;99.90;;;;;;5013633;28;19933;-90
2023/05/07 02:51:12;;;;;;;;;;;14.50;99.90;;;;;;5017901;28;19932;-89
2023/05/07 02:53:42;;;;;;;;;;;14.50;99.90;;;;;;5021032;28;20101;-90
2023/05/07 02:56:11;;;;;;;;;;;14.50;99.90;;;;;;5018702;28;19941;-90
2023/05/07 02:58:39;;;;;;;;;;;14.50;99.90;;;;;;5046666;22;19925;-80
2023/05/07 03:01:06;;;;;;;;;;;14.50;99.90;;;;;;5043751;28;19936;-80
2023/05/07 03:03:47;;;;;;;;;;;14.40;99.90;;;;;;5033342;28;20000;-81
2023/05/07 03:06:15;;;;;;;;;;;14.50;99.90;;;;;;5028595;28;20073;-79
2023/05/07 03:08:42;;;;;;;;;;;14.40;99.90;;;;;;5030730;28;19925;-80
2023/05/07 03:11:09;;;;;;;;;;;14.40;99.90;;;;;;5029851;28;19925;-80
2023/05/07 03:13:36;;;;;;;;;;;14.40;99.90;;;;;;5030577;28;20437;-80
2023/05/07 03:16:03;;;;;;;;;;;14.40;99.90;;;;;;5033766;28;19931;-79
2023/05/07 03:18:30;;;;;;;;;;;14.40;99.90;;;;;;5032052;28;19932;-81
2023/05/07 03:20:58;;;;;;;;;;;14.40;99.90;;;;;;5043468;28;19925;-80
2023/05/07 03:23:25;;;;;;;;;;;14.30;99.90;;;;;;5028496;28;19972;-80
2023/05/07 03:25:52;;;;;;;;;;;14.40;99.90;;;;;;5029205;28;19979;-80
2023/05/07 03:28:19;;;;;;;;;;;14.30;99.90;;;;;;5030984;28;19929;-81
2023/05/07 03:30:53;;;;;;;;;;;14.30;99.90;;;;;;5029542;28;19967;-80
2023/05/07 03:33:20;;;;;;;;;;;14.30;99.90;;;;;;5043219;28;20410;-80
2023/05/07 03:35:48;;;;;;;;;;;14.30;99.90;;;;;;5031446;28;20003;-80
2023/05/07 03:38:21;;;;;;;;;;;14.20;99.90;;;;;;5030728;28;19932;-79
2023/05/07 03:40:49;;;;;;;;;;;14.20;99.90;;;;;;5029773;28;20015;-80
2023/05/07 03:43:17;;;;;;;;;;;14.20;99.90;;;;;;5038010;28;19925;-80
2023/05/07 03:45:49;;;;;;;;;;;14.20;99.90;;;;;;5028857;28;19925;-80
2023/05/07 03:48:21;;;;;;;;;;;14.20;99.90;;;;;;5043413;28;19925;-80
2023/05/07 03:50:49;;;;;;;;;;;14.20;99.90;;;;;;5022907;28;19972;-80
2023/05/07 03:53:18;;;;;;;;;;;14.20;99.90;;;;;;5044536;28;19932;-80
2023/05/07 03:55:46;;;;;;;;;;;14.10;99.90;;;;;;5043964;28;19925;-80
2023/05/07 03:58:15;;;;;;;;;;;14.10;99.90;;;;;;5036025;28;20369;-80
2023/05/07 04:00:42;;;;;;;;;;;14.10;99.90;;;;;;5042292;28;20111;-80
2023/05/07 04:03:19;;;;;;;;;;;14.10;99.90;;;;;;5045683;28;19933;-80
2023/05/07 04:05:49;;;;;;;;;;;14.10;99.90;;;;;;5027890;28;19925;-80
2023/05/07 04:08:16;;;;;;;;;;;14.10;99.90;;;;;;5026014;28;19925;-79
2023/05/07 04:10:49;;;;;;;;;;;14.10;99.90;;;;;;5029684;28;20323;-80
2023/05/07 04:13:16;;;;;;;;;;;14.00;99.90;;;;;;5041598;28;20048;-80
2023/05/07 04:15:43;;;;;;;;;;;14.00;99.90;;;;;;5039551;28;19936;-79
2023/05/07 04:18:13;;;;;;;;;;;14.00;99.90;;;;;;5028881;28;19936;-80
2023/05/07 04:20:42;;;;;;;;;;;14.00;99.90;;;;;;5029524;28;20046;-80
2023/05/07 04:23:12;;;;;;;;;;;14.00;99.90;;;;;;5046771;28;19932;-80
2023/05/07 04:25:40;;;;;;;;;;;13.90;99.90;;;;;;5027912;28;19961;-79
2023/05/07 04:28:23;;;;;;;;;;;14.00;99.90;;;;;;5029228;28;19955;-81
2023/05/07 04:30:51;;;;;;;;;;;13.90;99.90;;;;;;5031310;28;19925;-80
2023/05/07 04:33:18;;;;;;;;;;;13.90;99.90;;;;;;5043572;28;19925;-80
2023/05/07 04:35:47;;;;;;;;;;;13.90;99.90;;;;;;5027591;28;20014;-79
2023/05/07 04:38:14;;;;;;;;;;;13.90;99.90;;;;;;5027807;28;19976;-79
2023/05/07 04:40:42;;;;;;;;;;;13.90;99.90;;;;;;5027881;28;19925;-80
2023/05/07 04:43:16;;;;;;;;;;;13.80;99.90;;;;;;5028502;28;19929;-80
2023/05/07 04:45:50;;;;;;;;;;;13.80;99.90;;;;;;5045627;28;19931;-81
2023/05/07 04:48:19;;;;;;;;;;;13.80;99.90;;;;;;5043500;28;19930;-80
2023/05/07 04:50:48;;;;;;;;;;;13.80;99.90;;;;;;5046807;28;19932;-80
2023/05/07 04:53:15;;;;;;;;;;;13.80;99.90;;;;;;5041783;28;20380;-80
2023/05/07 04:55:42;;;;;;;;;;;13.80;99.90;;;;;;5045437;28;19931;-80
2023/05/07 04:58:09;;;;;;;;;;;13.80;99.90;;;;;;5035293;28;19929;-80
2023/05/07 05:00:39;;;;;;;;;;;13.80;99.90;;;;;;5045836;28;19967;-80
2023/05/07 05:03:09;;;;;;;;;;;13.70;99.90;;;;;;5028852;28;19925;-81
2023/05/07 05:05:38;;;;;;;;;;;13.70;99.90;;;;;;5033711;28;19925;-80
2023/05/07 05:08:05;;;;;;;;;;;13.70;99.90;;;;;;5049467;28;19992;-80
2023/05/07 05:10:33;;;;;;;;;;;13.70;99.90;;;;;;5036500;28;19933;-80
2023/05/07 05:13:00;;;;;;;;;;;13.70;99.90;;;;;;5034476;28;19976;-80
2023/05/07 05:15:30;;;;;;;;;;;13.70;99.90;;;;;;5046074;28;19925;-79
2023/05/07 05:17:57;;;;;;;;;;;13.70;99.90;;;;;;5032010;28;20399;-80
2023/05/07 05:20:27;;;;;;;;;;;13.70;99.90;;;;;;5029671;28;19935;-80
2023/05/07 05:22:54;;;;;;;;;;;13.70;99.90;;;;;;5037541;28;20575;-80
2023/05/07 05:25:21;;;;;;;;;;;13.60;99.90;;;;;;5034488;28;19932;-81
2023/05/07 05:27:48;;;;;;;;;;;13.60;99.90;;;;;;5031844;28;19925;-80
2023/05/07 05:30:16;;;;;;;;;;;13.60;99.90;;;;;;5051864;28;19933;-80
2023/05/07 05:32:46;;;;;;;;;;;13.60;99.90;;;;;;5054188;28;19933;-80
2023/05/07 05:35:13;;;;;;;;;;;13.60;99.90;;;;;;5036599;28;19949;-80
2023/05/07 05:37:43;;;;;;;;;;;13.60;99.90;;;;;;5036477;28;20383;-81
2023/05/07 05:40:10;;;;;;;;;;;13.60;99.90;;;;;;5044177;28;19932;-80
2023/05/07 05:42:37;;;;;;;;;;;13.60;99.90;;;;;;5046562;28;19937;-80
2023/05/07 05:45:05;;;;;;;;;;;13.60;99.90;;;;;;5058352;28;19929;-79
2023/05/07 05:47:33;;;;;;;;;;;13.50;99.90;;;;;;5062024;28;19952;-80
2023/05/07 05:50:00;;;;;;;;;;;13.50;99.90;;;;;;5055109;28;20300;-79
2023/05/07 05:52:27;;;;;;;;;;;13.60;99.90;;;;;;5046437;28;19933;-80
2023/05/07 05:54:57;;;;;;;;;;;13.50;99.90;;;;;;5022446;28;19933;-81
2023/05/07 05:57:24;;;;;;;;;;;13.50;99.90;;;;;;5031676;28;19947;-80
2023/05/07 05:59:52;;;;;;;;;;;13.50;99.90;;;;;;5030293;28;19996;-80
2023/05/07 06:02:19;;;;;;;;;;;13.50;99.90;;;;;;5034413;28;19925;-80
2023/05/07 06:04:46;;;;;;;;;;;13.50;99.90;;;;;;5048121;28;20647;-80
2023/05/07 06:07:17;;;;;;;;;;;13.50;99.90;;;;;;5035539;28;19933;-80
2023/05/07 06:09:44;;;;;;;;;;;13.50;99.90;;;;;;5049973;28;19929;-80
2023/05/07 06:12:13;;;;;;;;;;;13.50;99.90;;;;;;5033199;28;19925;-80
2023/05/07 06:14:40;;;;;;;;;;;13.50;99.90;;;;;;5036996;28;19944;-80
2023/05/07 06:17:08;;;;;;;;;;;13.50;99.90;;;;;;5041831;28;20311;-80
2023/05/07 06:19:34;;;;;;;;;;;13.50;99.90;;;;;;5036074;28;20391;-81
2023/05/07 06:22:02;;;;;;;;;;;13.50;99.90;;;;;;5048717;28;19933;-80
2023/05/07 06:24:33;;;;;;;;;;;13.50;99.90;;;;;;5034440;28;19933;-81
2023/05/07 06:27:00;;;;;;;;;;;13.50;99.90;;;;;;5038973;28;19979;-80
2023/05/07 06:29:33;;;;;;;;;;;13.60;99.90;;;;;;5044356;28;19926;-81
2023/05/07 06:32:07;;;;;;;;;;;13.50;99.90;;;;;;5051996;28;19960;-80
2023/05/07 06:34:34;;;;;;;;;;;13.60;99.90;;;;;;5032957;28;19971;-79
2023/05/07 06:37:01;;;;;;;;;;;13.60;99.90;;;;;;5032800;28;19956;-80
2023/05/07 06:39:44;;;;;;;;;;;13.60;99.90;;;;;;5028512;28;20418;-80
2023/05/07 06:42:11;;;;;;;;;;;13.60;99.90;;;;;;5029548;28;19925;-81
2023/05/07 06:44:44;;;;;;;;;;;13.60;99.90;;;;;;5052427;28;20026;-80
2023/05/07 06:47:18;;;;;;;;;;;13.60;99.90;;;;;;5028648;28;19925;-80
2023/05/07 06:49:50;;;;;;;;;;;13.60;99.90;;;;;;5051131;28;19925;-81
2023/05/07 06:52:28;;;;;;;;;;;13.60;99.90;;;;;;5034254;28;19952;-82
2023/05/07 06:54:56;;;;;;;;;;;13.70;99.90;;;;;;5030320;28;19933;-80
2023/05/07 06:57:27;;;;;;;;;;;13.70;99.90;;;;;;5040296;28;19933;-81
2023/05/07 06:59:55;;;;;;;;;;;13.70;99.90;;;;;;5042111;28;19988;-82
2023/05/07 07:02:25;;;;;;;;;;;13.70;99.90;;;;;;5057143;28;19995;-80
2023/05/07 07:04:52;;;;;;;;;;;13.70;99.90;;;;;;5039044;28;19921;-80
2023/05/07 07:07:23;;;;;;;;;;;13.70;99.90;;;;;;5040010;28;20019;-80
2023/05/07 07:12:54;;;;;;;;;;;13.80;99.90;;;;;;5037216;28;19932;-81
2023/05/07 07:15:24;;;;;;;;;;;13.80;99.90;;;;;;5056494;28;19928;-80
2023/05/07 07:17:57;;;;;;;;;;;13.90;99.90;;;;;;5036679;28;19932;-81
2023/05/07 07:20:28;;;;;;;;;;;13.90;99.90;;;;;;5042245;28;19929;-80
2023/05/07 07:23:09;;;;;;;;;;;13.90;99.90;;;;;;5052623;28;19932;-81
2023/05/07 07:25:40;;;;;;;;;;;13.90;99.90;;;;;;5050587;28;19940;-80
2023/05/07 07:28:21;;;;;;;;;;;13.90;99.90;;;;;;5051060;28;19925;-80
2023/05/07 07:30:50;;;;;;;;;;;14.00;99.90;;;;;;5053438;28;19909;-80
2023/05/07 07:33:18;;;;;;;;;;;14.00;99.90;;;;;;5052391;28;19925;-81
2023/05/07 07:35:50;;;;;;;;;;;14.00;99.90;;;;;;5047691;28;19933;-82
2023/05/07 07:38:19;;;;;;;;;;;14.00;99.90;;;;;;5043894;28;19920;-82
2023/05/07 07:40:50;;;;;;;;;;;14.00;99.90;;;;;;5044061;28;20024;-81
2023/05/07 07:43:17;;;;;;;;;;;14.10;99.90;;;;;;5055201;28;19997;-81
2023/05/07 07:45:47;;;;;;;;;;;14.10;99.90;;;;;;5066204;28;19915;-83
2023/05/07 07:48:19;;;;;;;;;;;14.10;99.90;;;;;;5045246;28;20003;-82
2023/05/07 07:50:49;;;;;;;;;;;14.10;99.90;;;;;;5060763;28;20387;-81
2023/05/07 07:53:16;;;;;;;;;;;14.10;99.90;;;;;;5050588;28;20016;-81
2023/05/07 07:55:45;;;;;;;;;;;14.20;99.90;;;;;;5041318;28;20407;-81
2023/05/07 07:58:16;;;;;;;;;;;14.20;99.90;;;;;;5036759;28;19940;-80
2023/05/07 08:00:43;;;;;;;;;;;14.20;99.90;;;;;;5052353;28;20017;-81
2023/05/07 08:03:11;;;;;;;;;;;14.20;99.90;;;;;;5042458;28;19925;-80
2023/05/07 08:05:45;;;;;;;;;;;14.30;99.90;;;;;;5048270;28;19929;-81
2023/05/07 08:08:14;;;;;;;;;;;14.30;99.90;;;;;;5057452;28;19971;-81
2023/05/07 08:10:42;;;;;;;;;;;14.40;99.90;;;;;;5042620;28;20080;-81
2023/05/07 08:13:17;;;;;;;;;;;14.40;99.90;;;;;;5051042;28;19925;-81
2023/05/07 08:15:44;;;;;;;;;;;14.40;99.90;;;;;;5044009;28;19924;-81
2023/05/07 08:18:13;;;;;;;;;;;14.40;99.90;;;;;;5042149;28;19928;-81
2023/05/07 08:20:41;;;;;;;;;;;14.40;99.90;;;;;;5053186;28;19925;-81
2023/05/07 08:23:14;;;;;;;;;;;14.40;99.90;;;;;;5034086;28;19925;-81
2023/05/07 08:25:43;;;;;;;;;;;14.50;99.90;;;;;;5031399;28;19932;-80
2023/05/07 08:28:24;;;;;;;;;;;14.80;99.90;;;;;;5068574;28;19952;-85
2023/05/07 08:30:52;;;;;;;;;;;14.80;99.90;;;;;;5040461;28;20395;-85
2023/05/07 08:33:22;;;;;;;;;;;14.80;99.90;;;;;;5059266;28;19920;-86
2023/05/07 08:35:59;;;;;;;;;;;14.70;99.90;;;;;;5052432;28;19991;-86
2023/05/07 08:38:31;;;;;;;;;;;14.70;99.90;;;;;;5040909;28;19933;-86
2023/05/07 08:41:00;;;;;;;;;;;14.70;99.90;;;;;;5053092;28;19925;-83
2023/05/07 08:43:32;;;;;;;;;;;14.70;99.90;;;;;;5048394;28;19925;-83
2023/05/07 08:46:01;;;;;;;;;;;14.70;99.90;;;;;;5023824;28;20387;-81
2023/05/07 08:48:32;;;;;;;;;;;14.70;99.90;;;;;;5041224;28;19925;-81
2023/05/07 08:51:07;;;;;;;;;;;14.80;99.90;;;;;;5040460;28;19940;-78
2023/05/07 08:53:41;;;;;;;;;;;14.80;99.90;;;;;;5037160;28;20717;-80
2023/05/07 08:56:10;;;;;;;;;;;14.80;99.90;;;;;;5029563;28;20060;-79
2023/05/07 08:58:40;;;;;;;;;;;14.90;99.90;;;;;;5041493;28;20559;-80
2023/05/07 09:01:09;;;;;;;;;;;14.90;99.90;;;;;;5030747;28;20418;-82
2023/05/07 09:03:39;;;;;;;;;;;14.90;99.90;;;;;;5042122;28;19929;-80
2023/05/07 09:06:06;;;;;;;;;;;14.90;99.90;;;;;;5041699;28;20379;-82
2023/05/07 09:08:34;;;;;;;;;;;14.90;99.90;;;;;;5038587;28;19925;-79
2023/05/07 09:11:05;;;;;;;;;;;15.00;99.90;;;;;;5031632;28;20384;-80
2023/05/07 09:13:32;;;;;;;;;;;15.00;99.90;;;;;;5045226;28;19925;-79
2023/05/07 09:16:10;;;;;;;;;;;15.00;99.90;;;;;;5030226;28;19933;-83
2023/05/07 09:18:41;;;;;;;;;;;15.00;99.90;;;;;;5029035;28;19929;-83
2023/05/07 09:21:28;;;;;;;;;;;15.10;99.90;;;;;;5027544;28;19928;-84
2023/05/07 09:24:01;;;;;;;;;;;15.10;99.90;;;;;;5025818;28;19925;-82
2023/05/07 09:26:36;;;;;;;;;;;15.20;99.90;;;;;;5020137;28;19976;-80
2023/05/07 09:29:05;;;;;;;;;;;15.20;99.90;;;;;;5026725;28;19929;-81
2023/05/07 09:31:37;;;;;;;;;;;15.20;99.90;;;;;;5019143;28;19932;-78
2023/05/07 09:34:05;;;;;;;;;;;15.60;99.90;;;;;;5037731;28;19977;-78
2023/05/07 09:36:34;;;;;;;;;;;15.90;99.90;;;;;;5020541;28;19972;-79
2023/05/07 09:39:02;;;;;;;;;;;15.90;99.90;;;;;;5043978;28;19925;-78
2023/05/07 09:41:31;;;;;;;;;;;15.90;99.90;;;;;;5043745;28;20324;-79
2023/05/07 09:44:10;;;;;;;;;;;15.90;99.90;;;;;;5047536;28;19956;-80
2023/05/07 09:46:51;;;;;;;;;;;15.80;99.90;;;;;;5029940;28;19948;-80
2023/05/07 09:49:24;;;;;;;;;;;15.70;99.90;;;;;;5027051;28;19929;-79
2023/05/07 09:52:01;;;;;;;;;;;15.70;99.90;;;;;;5037124;28;20260;-79
2023/05/07 09:54:30;;;;;;;;;;;15.70;99.90;;;;;;5034565;28;19932;-79
2023/05/07 09:56:59;;;;;;;;;;;15.70;99.90;;;;;;5031126;28;20031;-79
2023/05/07 09:59:31;;;;;;;;;;;15.80;99.90;;;;;;5033640;28;19925;-78
2023/05/07 10:02:02;;;;;;;;;;;15.90;99.90;;;;;;5032776;28;20020;-77
2023/05/07 10:04:30;;;;;;;;;;;15.90;99.90;;;;;;5047866;28;19925;-80
2023/05/07 10:06:57;;;;;;;;;;;15.80;99.90;;;;;;5029686;28;19935;-79
2023/05/07 10:09:26;;;;;;;;;;;15.90;99.90;;;;;;5049160;28;20612;-79
2023/05/07 10:11:54;;;;;;;;;;;15.80;99.90;;;;;;5020358;28;20409;-78
2023/05/07 10:14:22;;;;;;;;;;;15.90;99.90;;;;;;5034527;28;20376;-79
2023/05/07 10:16:51;;;;;;;;;;;15.90;99.90;;;;;;5035550;28;19929;-80
2023/05/07 10:19:19;;;;;;;;;;;15.90;99.90;;;;;;5032993;28;19968;-80
2023/05/07 10:21:55;;;;;;;;;;;15.90;99.90;;;;;;5042402;28;19933;-79
2023/05/07 10:24:24;;;;;;;;;;;16.00;99.90;;;;;;5042648;28;19951;-78
2023/05/07 10:26:53;;;;;;;;;;;16.00;99.90;;;;;;5023829;28;19940;-78
2023/05/07 10:29:25;;;;;;;;;;;16.00;99.90;;;;;;5025543;28;19929;-79
2023/05/07 10:31:59;;;;;;;;;;;16.00;99.90;;;;;;5030273;28;19925;-79
2023/05/07 10:34:30;;;;;;;;;;;16.10;99.90;;;;;;5027455;28;20468;-79
2023/05/07 10:36:57;;;;;;;;;;;16.10;99.90;;;;;;5027232;28;19952;-79
2023/05/07 10:39:25;;;;;;;;;;;16.10;99.90;;;;;;5032313;28;19943;-80
2023/05/07 10:41:52;;;;;;;;;;;16.10;99.90;;;;;;5029417;28;19933;-79
2023/05/07 10:44:26;;;;;;;;;;;16.10;99.90;;;;;;5045175;28;19944;-79
2023/05/07 10:47:09;;;;;;;;;;;16.10;99.90;;;;;;5028977;28;20195;-79
2023/05/07 10:49:37;;;;;;;;;;;16.10;99.90;;;;;;5030500;28;20088;-79
2023/05/07 10:52:17;;;;;;;;;;;16.20;99.90;;;;;;5047998;28;19933;-80
2023/05/07 10:55:21;;;;;;;;;;;16.20;99.90;;;;;;5023830;28;19933;-80
2023/05/07 10:58:18;;;;;;;;;;;16.20;99.90;;;;;;5036917;28;19925;-79
2023/05/07 11:00:45;;;;;;;;;;;16.20;99.90;;;;;;5029396;28;19987;-79
2023/05/07 11:03:22;;;;;;;;;;;16.30;99.90;;;;;;5046074;28;19925;-80
2023/05/07 11:06:10;;;;;;;;;;;16.30;99.90;;;;;;5030986;28;19933;-78
2023/05/07 11:08:56;;;;;;;;;;;16.30;99.90;;;;;;5038028;28;19924;-80
2023/05/07 11:11:46;;;;;;;;;;;16.40;99.90;;;;;;5028683;28;19929;-79
2023/05/07 11:14:34;;;;;;;;;;;16.40;99.90;;;;;;5033684;28;20147;-78
2023/05/07 11:17:08;;;;;;;;;;;16.40;99.90;;;;;;5026231;28;19925;-80
2023/05/07 11:19:50;;;;;;;;;;;16.40;99.90;;;;;;5026526;28;20142;-79
2023/05/07 11:22:35;;;;;;;;;;;16.50;99.90;;;;;;5027008;28;20395;-80
2023/05/07 11:25:19;;;;;;;;;;;16.50;99.90;;;;;;5031393;28;20518;-79
2023/05/07 11:27:52;;;;;;;;;;;16.50;99.90;;;;;;5048395;28;19931;-78
2023/05/07 11:30:19;;;;;;;;;;;16.50;99.90;;;;;;5040799;28;19940;-78
2023/05/07 11:32:48;;;;;;;;;;;16.50;99.90;;;;;;5038929;28;19932;-79
2023/05/07 11:35:17;;;;;;;;;;;16.60;99.90;;;;;;5025493;28;20371;-79
2023/05/07 11:37:49;;;;;;;;;;;16.60;99.90;;;;;;5028850;28;19925;-78
2023/05/07 11:40:17;;;;;;;;;;;16.60;99.90;;;;;;5026836;28;19929;-80
2023/05/07 11:42:45;;;;;;;;;;;16.70;99.90;;;;;;5034619;28;19914;-79
2023/05/07 11:45:13;;;;;;;;;;;16.70;99.90;;;;;;5035380;28;20407;-80
2023/05/07 11:47:42;;;;;;;;;;;16.70;99.90;;;;;;5038140;28;19956;-78
2023/05/07 11:50:11;;;;;;;;;;;16.70;99.90;;;;;;5038139;28;21094;-78
2023/05/07 11:52:39;;;;;;;;;;;16.70;99.90;;;;;;5033219;28;20414;-79
2023/05/07 11:55:07;;;;;;;;;;;16.80;99.90;;;;;;5039209;28;19952;-81
2023/05/07 11:57:35;;;;;;;;;;;16.80;99.90;;;;;;5049831;28;20076;-79
2023/05/07 12:00:05;;;;;;;;;;;16.80;99.90;;;;;;5040527;28;19925;-79
2023/05/07 12:02:39;;;;;;;;;;;16.90;99.90;;;;;;5032553;28;19925;-79
2023/05/07 12:05:07;;;;;;;;;;;17.00;99.90;;;;;;5036164;28;19994;-78
2023/05/07 12:07:34;;;;;;;;;;;17.00;99.90;;;;;;5040886;28;20398;-80
2023/05/07 12:10:07;;;;;;;;;;;17.00;99.90;;;;;;5039947;28;19933;-79
2023/05/07 12:12:39;;;;;;;;;;;17.10;99.90;;;;;;5039995;28;20611;-78
2023/05/07 12:15:10;;;;;;;;;;;17.10;99.90;;;;;;5040391;28;19967;-78
2023/05/07 12:17:37;;;;;;;;;;;17.10;99.90;;;;;;5036259;28;19941;-79
2023/05/07 12:20:05;;;;;;;;;;;17.10;99.90;;;;;;5040367;28;19933;-80
2023/05/07 12:22:32;;;;;;;;;;;17.20;99.90;;;;;;5036622;28;19968;-79
2023/05/07 12:24:59;;;;;;;;;;;17.20;99.90;;;;;;5040082;28;20346;-78
2023/05/07 12:27:27;;;;;;;;;;;17.20;99.90;;;;;;5032607;28;19975;-79
2023/05/07 12:29:53;;;;;;;;;;;17.30;99.90;;;;;;5033479;28;19931;-78
2023/05/07 12:32:22;;;;;;;;;;;17.30;99.90;;;;;;5026090;28;19953;-80
2023/05/07 12:34:50;;;;;;;;;;;17.30;99.90;;;;;;5027731;28;19933;-78
2023/05/07 12:37:23;;;;;;;;;;;17.40;99.90;;;;;;5033039;28;19925;-79
2023/05/07 12:39:51;;;;;;;;;;;17.40;99.90;;;;;;5048569;28;19929;-78
2023/05/07 12:42:23;;;;;;;;;;;17.40;99.90;;;;;;5022969;28;19925;-78
2023/05/07 12:44:50;;;;;;;;;;;17.40;99.90;;;;;;5041468;28;19925;-78
2023/05/07 12:47:17;;;;;;;;;;;17.50;99.90;;;;;;5056359;28;19951;-78
2023/05/07 12:49:46;;;;;;;;;;;17.50;99.90;;;;;;5036543;28;19960;-77
2023/05/07 12:52:14;;;;;;;;;;;17.50;99.90;;;;;;5036752;28;19952;-78
2023/05/07 12:54:41;;;;;;;;;;;17.50;99.90;;;;;;5037271;28;20307;-78
2023/05/07 12:57:09;;;;;;;;;;;17.60;99.90;;;;;;5033538;28;19931;-78
2023/05/07 12:59:43;;;;;;;;;;;17.60;99.90;;;;;;5029733;28;19933;-77
2023/05/07 13:02:10;;;;;;;;;;;17.70;99.90;;;;;;5029007;28;19976;-77
2023/05/07 13:04:38;;;;;;;;;;;17.70;99.90;;;;;;5049003;28;19925;-78
2023/05/07 13:07:08;;;;;;;;;;;17.70;99.90;;;;;;5035349;28;20311;-77
2023/05/07 13:09:36;;;;;;;;;;;17.70;99.90;;;;;;5028988;28;19947;-77
2023/05/07 13:12:04;;;;;;;;;;;17.80;99.90;;;;;;5031680;28;19979;-77
2023/05/07 13:14:32;;;;;;;;;;;17.80;99.90;;;;;;5046141;28;20290;-78
2023/05/07 13:16:59;;;;;;;;;;;17.80;99.90;;;;;;5056060;28;19929;-78
2023/05/07 13:19:26;;;;;;;;;;;17.80;99.90;;;;;;5033132;28;19929;-77
2023/05/07 13:21:53;;;;;;;;;;;17.90;99.90;;;;;;5038506;28;19955;-77
2023/05/07 13:24:22;;;;;;;;;;;17.80;99.90;;;;;;5031023;28;20067;-77
2023/05/07 13:26:51;;;;;;;;;;;17.90;99.90;;;;;;5029099;28;19933;-78
2023/05/07 13:29:21;;;;;;;;;;;;;;;;;;5023591;28;19926;-82
2023/05/07 13:31:48;;;;;;;;;;;18.20;99.90;;;;;;5027830;28;20699;-82
2023/05/07 13:34:15;;;;;;;;;;;18.60;99.90;;;;;;5027389;28;19964;-82
2023/05/07 13:36:50;;;;;;;;;;;18.70;99.90;;;;;;5021529;28;19933;-82
2023/05/07 13:39:18;;;;;;;;;;;18.90;99.90;;;;;;5030446;28;19925;-82
2023/05/07 13:41:46;;;;;;;;;;;18.90;99.90;;;;;;5041204;28;19932;-82
2023/05/07 13:44:14;;;;;;;;;;;19.00;99.90;;;;;;5031952;28;19948;-82
2023/05/07 13:46:41;;;;;;;;;;;19.00;99.90;;;;;;5026309;28;19986;-84
2023/05/07 13:49:08;;;;;;;;;;;19.00;99.90;;;;;;5033798;28;20016;-86
2023/05/07 13:51:35;;;;;;;;;;;19.10;99.90;;;;;;5024207;28;19925;-85
2023/05/07 13:54:02;;;;;;;;;;;19.00;99.90;;;;;;5034221;28;19933;-84
2023/05/07 13:56:32;;;;;;;;;;;19.00;99.90;;;;;;5026619;28;19925;-85
2023/05/07 13:59:00;;;;;;;;;;;19.00;99.90;;;;;;5041902;28;19933;-86
2023/05/07 14:01:27;;;;;;;;;;;19.10;99.90;;;;;;5034553;28;19932;-84
2023/05/07 14:03:54;;;;;;;;;;;19.00;99.90;;;;;;5018705;28;20338;-85
2023/05/07 14:06:23;;;;;;;;;;;19.00;99.90;;;;;;5029859;28;19933;-86
2023/05/07 14:08:51;;;;;;;;;;;18.90;99.90;;;;;;5035413;28;19930;-79
2023/05/07 14:11:18;;;;;;;;;;;18.90;99.90;;;;;;5032874;28;19968;-78
2023/05/07 14:13:45;;;;;;;;;;;18.80;99.90;;;;;;5034411;28;19931;-78
2023/05/07 14:16:13;;;;;;;;;;;18.70;99.90;;;;;;5039703;28;19924;-77
2023/05/07 14:18:40;;;;;;;;;;;18.70;99.90;;;;;;5033417;28;20034;-78
2023/05/07 14:21:10;;;;;;;;;;;18.60;99.90;;;;;;5044752;28;19929;-77
2023/05/07 14:23:37;;;;;;;;;;;18.60;99.90;;;;;;5029784;28;19960;-78
2023/05/07 14:26:04;;;;;;;;;;;18.60;99.90;;;;;;5035904;28;19925;-77
2023/05/07 14:28:32;;;;;;;;;;;18.60;99.90;;;;;;5031597;28;19932;-79
2023/05/07 14:30:59;;;;;;;;;;;18.50;99.90;;;;;;5032488;28;19929;-79
2023/05/07 14:33:27;;;;;;;;;;;18.50;99.90;;;;;;5028910;28;19964;-78
2023/05/07 14:35:55;;;;;;;;;;;18.50;99.90;;;;;;5041320;28;19935;-76